Adair, IL

11:00 PM CDT on July 06, 2015 (GMT -0500)
ARS W9PFD | | Change Station
CLOSE
Current Station
Personal Weather Station
Location: Adair, IL
Elevation: 650 ft
Nearby Weather Stations

Elev 650 ft 40.42 °N, 90.46 °W | Updated 4 minutes ago

Rain
Rain
71.9 °F
Feels Like 71.9 °F
N
5.0
Wind Variable Wind from NW
Gusts 8.0 mph

Today
High -- | Low -- °F
--% Chance of Precip.
Yesterday
High -- | Low -- °F
Precip. -- in
5:38 AM 8:34 PM
Waning Gibbous, 69% visible
Pressure 29.92 in
Visibility 1.5 miles
Clouds Scattered Clouds 500 ft
Mostly Cloudy 2500 ft
Overcast 4300 ft
Dew Point 71 °F
Humidity 97%
Rainfall 0.74 in
Snow Depth Not available.
UV 0 out of 12
Pollen 4.20 out of 12
Air Quality Not available.
Flu Activity Not available.
METAR KMQB 070355Z AUTO 28005KT 1 1/2SM +RA SCT005 BKN025 OVC043 22/22 A2992 RMK AO2 T02160215

More Conditions Fewer Conditions

Pressure 29.92 in
Visibility 1.5 miles
Clouds Scattered Clouds 500 ft
Mostly Cloudy 2500 ft
Overcast 4300 ft
Dew Point 71 °F
Humidity 97%
Rainfall 0.74 in
Snow Depth Not available.
UV 0 out of 12
Pollen 4.20 out of 12
Air Quality Not available.
Flu Activity Not available.
METAR KMQB 070355Z AUTO 28005KT 1 1/2SM +RA SCT005 BKN025 OVC043 22/22 A2992 RMK AO2 T02160215

More Conditions Fewer Conditions

10-Day Weather Forecast

×

Almanac

Astronomy

Jul. 06, 2015 Rise Set
Actual Time
Civil Twilight
Nautical Twilight
Astronomical Twilight
Moon
Length of Visible Light
Length of Day
Tomorrow will be .
, % of the Moon is Illuminated

Today's Extremes

State Highs State Lows

Community

WunderPhotos

Upload Photos

1,835,716 photos uploaded!

WunderBlogs® & News

Nearby

Air Quality

  Air Quality AQ Index Pollutant
Not available.

Snow Depth

Station Depth Elevation

Earthquake Activity

City Distance Mag. Time & Date
Minimum magnitude displayed is 2.5.

Coastal Water Temperatures

Place Temperature

Stations

Nearby Weather Stations

Station Location Temp. Windchill Dew Point Humidity Wind Precip. Elev Updated Type